sensor_id;sensor_type;location;lat;lon;timestamp;P1;durP1;ratioP1;P2;durP2;ratioP2
10701;SDS011;5402;50.004;8.246;2023-12-20T00:00:36;0.00;;;0.00;;
10701;SDS011;5402;50.004;8.246;2023-12-20T00:03:03;0.00;;;0.00;;
10701;SDS011;5402;50.004;8.246;2023-12-20T00:05:30;0.00;;;0.00;;
10701;SDS011;5402;50.004;8.246;2023-12-20T00:07:57;0.00;;;0.00;;
10701;SDS011;5402;50.004;8.246;2023-12-20T00:10:24;0.00;;;0.00;;
10701;SDS011;5402;50.004;8.246;2023-12-20T00:12:52;0.00;;;0.00;;
10701;SDS011;5402;50.004;8.246;2023-12-20T00:15:18;0.00;;;0.00;;
10701;SDS011;5402;50.004;8.246;2023-12-20T00:17:45;0.00;;;0.00;;
10701;SDS011;5402;50.004;8.246;2023-12-20T00:20:12;0.00;;;0.00;;
10701;SDS011;5402;50.004;8.246;2023-12-20T00:22:39;0.00;;;0.00;;
10701;SDS011;5402;50.004;8.246;2023-12-20T00:25:05;0.00;;;0.00;;
10701;SDS011;5402;50.004;8.246;2023-12-20T00:27:33;0.00;;;0.00;;
10701;SDS011;5402;50.004;8.246;2023-12-20T00:30:01;0.00;;;0.00;;
10701;SDS011;5402;50.004;8.246;2023-12-20T00:32:28;0.00;;;0.00;;
10701;SDS011;5402;50.004;8.246;2023-12-20T00:34:55;0.00;;;0.00;;
10701;SDS011;5402;50.004;8.246;2023-12-20T00:37:21;0.00;;;0.00;;
10701;SDS011;5402;50.004;8.246;2023-12-20T00:39:49;0.00;;;0.00;;
10701;SDS011;5402;50.004;8.246;2023-12-20T00:42:15;0.00;;;0.00;;
10701;SDS011;5402;50.004;8.246;2023-12-20T00:44:42;0.00;;;0.00;;
10701;SDS011;5402;50.004;8.246;2023-12-20T00:47:10;0.00;;;0.00;;
10701;SDS011;5402;50.004;8.246;2023-12-20T00:49:38;0.00;;;0.00;;
10701;SDS011;5402;50.004;8.246;2023-12-20T00:52:05;0.00;;;0.00;;
10701;SDS011;5402;50.004;8.246;2023-12-20T00:54:32;0.00;;;0.00;;
10701;SDS011;5402;50.004;8.246;2023-12-20T00:56:59;0.00;;;0.00;;
10701;SDS011;5402;50.004;8.246;2023-12-20T00:59:25;0.00;;;0.00;;
10701;SDS011;5402;50.004;8.246;2023-12-20T01:01:52;0.00;;;0.00;;
10701;SDS011;5402;50.004;8.246;2023-12-20T01:04:20;0.00;;;0.00;;
10701;SDS011;5402;50.004;8.246;2023-12-20T01:06:47;0.00;;;0.00;;
10701;SDS011;5402;50.004;8.246;2023-12-20T01:09:13;0.00;;;0.00;;
10701;SDS011;5402;50.004;8.246;2023-12-20T01:11:40;0.00;;;0.00;;
10701;SDS011;5402;50.004;8.246;2023-12-20T01:14:07;0.00;;;0.00;;
10701;SDS011;5402;50.004;8.246;2023-12-20T01:16:33;0.10;;;0.10;;
10701;SDS011;5402;50.004;8.246;2023-12-20T01:19:00;0.00;;;0.00;;
10701;SDS011;5402;50.004;8.246;2023-12-20T01:21:28;0.00;;;0.00;;
10701;SDS011;5402;50.004;8.246;2023-12-20T01:23:55;0.00;;;0.00;;
10701;SDS011;5402;50.004;8.246;2023-12-20T01:26:21;0.00;;;0.00;;
10701;SDS011;5402;50.004;8.246;2023-12-20T01:28:49;0.00;;;0.00;;
10701;SDS011;5402;50.004;8.246;2023-12-20T01:31:15;0.00;;;0.00;;
10701;SDS011;5402;50.004;8.246;2023-12-20T01:33:42;0.00;;;0.00;;
10701;SDS011;5402;50.004;8.246;2023-12-20T01:36:09;0.00;;;0.00;;
10701;SDS011;5402;50.004;8.246;2023-12-20T01:38:37;0.00;;;0.00;;
10701;SDS011;5402;50.004;8.246;2023-12-20T01:41:04;0.00;;;0.00;;
10701;SDS011;5402;50.004;8.246;2023-12-20T01:43:31;0.00;;;0.00;;
10701;SDS011;5402;50.004;8.246;2023-12-20T01:45:57;0.00;;;0.00;;
10701;SDS011;5402;50.004;8.246;2023-12-20T01:48:24;0.00;;;0.00;;
10701;SDS011;5402;50.004;8.246;2023-12-20T01:50:52;0.00;;;0.00;;
10701;SDS011;5402;50.004;8.246;2023-12-20T01:53:21;0.00;;;0.00;;
10701;SDS011;5402;50.004;8.246;2023-12-20T01:55:51;0.00;;;0.00;;
10701;SDS011;5402;50.004;8.246;2023-12-20T01:58:20;0.00;;;0.00;;
10701;SDS011;5402;50.004;8.246;2023-12-20T02:00:47;0.00;;;0.00;;
10701;SDS011;5402;50.004;8.246;2023-12-20T02:03:14;0.00;;;0.00;;
10701;SDS011;5402;50.004;8.246;2023-12-20T02:05:42;0.00;;;0.00;;
10701;SDS011;5402;50.004;8.246;2023-12-20T02:08:11;0.00;;;0.00;;
10701;SDS011;5402;50.004;8.246;2023-12-20T02:10:38;0.00;;;0.00;;
10701;SDS011;5402;50.004;8.246;2023-12-20T02:13:07;0.00;;;0.00;;
10701;SDS011;5402;50.004;8.246;2023-12-20T02:15:32;0.00;;;0.00;;
10701;SDS011;5402;50.004;8.246;2023-12-20T02:18:01;0.00;;;0.00;;
10701;SDS011;5402;50.004;8.246;2023-12-20T02:20:28;0.00;;;0.00;;
10701;SDS011;5402;50.004;8.246;2023-12-20T02:22:56;0.00;;;0.00;;
10701;SDS011;5402;50.004;8.246;2023-12-20T02:25:23;0.00;;;0.00;;
10701;SDS011;5402;50.004;8.246;2023-12-20T02:27:50;0.00;;;0.00;;
10701;SDS011;5402;50.004;8.246;2023-12-20T02:30:17;0.00;;;0.00;;
10701;SDS011;5402;50.004;8.246;2023-12-20T02:32:43;0.00;;;0.00;;
10701;SDS011;5402;50.004;8.246;2023-12-20T02:35:10;0.00;;;0.00;;
10701;SDS011;5402;50.004;8.246;2023-12-20T02:37:37;0.00;;;0.00;;
10701;SDS011;5402;50.004;8.246;2023-12-20T02:40:06;0.00;;;0.00;;
10701;SDS011;5402;50.004;8.246;2023-12-20T02:42:33;0.00;;;0.00;;
10701;SDS011;5402;50.004;8.246;2023-12-20T02:45:00;0.00;;;0.00;;
10701;SDS011;5402;50.004;8.246;2023-12-20T02:47:26;0.00;;;0.00;;
10701;SDS011;5402;50.004;8.246;2023-12-20T02:49:54;0.00;;;0.00;;
10701;SDS011;5402;50.004;8.246;2023-12-20T02:52:21;0.00;;;0.00;;
10701;SDS011;5402;50.004;8.246;2023-12-20T02:54:49;0.00;;;0.00;;
10701;SDS011;5402;50.004;8.246;2023-12-20T02:57:17;0.00;;;0.00;;
10701;SDS011;5402;50.004;8.246;2023-12-20T02:59:43;0.00;;;0.00;;
10701;SDS011;5402;50.004;8.246;2023-12-20T03:02:10;0.00;;;0.00;;
10701;SDS011;5402;50.004;8.246;2023-12-20T03:04:37;0.00;;;0.00;;
10701;SDS011;5402;50.004;8.246;2023-12-20T03:07:03;0.00;;;0.00;;
10701;SDS011;5402;50.004;8.246;2023-12-20T03:09:30;0.00;;;0.00;;
10701;SDS011;5402;50.004;8.246;2023-12-20T03:11:57;0.00;;;0.00;;
10701;SDS011;5402;50.004;8.246;2023-12-20T03:14:25;0.00;;;0.00;;
10701;SDS011;5402;50.004;8.246;2023-12-20T03:16:52;0.00;;;0.00;;
10701;SDS011;5402;50.004;8.246;2023-12-20T03:19:18;0.00;;;0.00;;
10701;SDS011;5402;50.004;8.246;2023-12-20T03:21:45;0.00;;;0.00;;
10701;SDS011;5402;50.004;8.246;2023-12-20T03:24:12;0.00;;;0.00;;
10701;SDS011;5402;50.004;8.246;2023-12-20T03:26:38;0.00;;;0.00;;
10701;SDS011;5402;50.004;8.246;2023-12-20T03:29:05;0.00;;;0.00;;
10701;SDS011;5402;50.004;8.246;2023-12-20T03:31:33;0.00;;;0.00;;
10701;SDS011;5402;50.004;8.246;2023-12-20T03:34:00;0.00;;;0.00;;
10701;SDS011;5402;50.004;8.246;2023-12-20T03:36:26;0.00;;;0.00;;
10701;SDS011;5402;50.004;8.246;2023-12-20T03:38:53;0.00;;;0.00;;
10701;SDS011;5402;50.004;8.246;2023-12-20T03:41:20;0.00;;;0.00;;
10701;SDS011;5402;50.004;8.246;2023-12-20T03:43:46;0.00;;;0.00;;
10701;SDS011;5402;50.004;8.246;2023-12-20T03:46:13;0.00;;;0.00;;
10701;SDS011;5402;50.004;8.246;2023-12-20T03:48:41;0.00;;;0.00;;
10701;SDS011;5402;50.004;8.246;2023-12-20T03:51:08;0.00;;;0.00;;
10701;SDS011;5402;50.004;8.246;2023-12-20T03:53:34;0.00;;;0.00;;
10701;SDS011;5402;50.004;8.246;2023-12-20T03:56:01;0.00;;;0.00;;
10701;SDS011;5402;50.004;8.246;2023-12-20T03:58:28;0.00;;;0.00;;
10701;SDS011;5402;50.004;8.246;2023-12-20T04:00:55;0.00;;;0.00;;
10701;SDS011;5402;50.004;8.246;2023-12-20T04:03:22;0.00;;;0.00;;
10701;SDS011;5402;50.004;8.246;2023-12-20T04:05:50;0.00;;;0.00;;
10701;SDS011;5402;50.004;8.246;2023-12-20T04:08:16;0.00;;;0.00;;
10701;SDS011;5402;50.004;8.246;2023-12-20T04:10:43;0.00;;;0.00;;
10701;SDS011;5402;50.004;8.246;2023-12-20T04:13:09;0.00;;;0.00;;
10701;SDS011;5402;50.004;8.246;2023-12-20T04:15:36;0.00;;;0.00;;
10701;SDS011;5402;50.004;8.246;2023-12-20T04:18:03;0.00;;;0.00;;
10701;SDS011;5402;50.004;8.246;2023-12-20T04:20:30;0.00;;;0.00;;
10701;SDS011;5402;50.004;8.246;2023-12-20T04:22:57;0.00;;;0.00;;
10701;SDS011;5402;50.004;8.246;2023-12-20T04:25:24;0.00;;;0.00;;
10701;SDS011;5402;50.004;8.246;2023-12-20T04:27:51;0.00;;;0.00;;
10701;SDS011;5402;50.004;8.246;2023-12-20T04:30:18;0.00;;;0.00;;
10701;SDS011;5402;50.004;8.246;2023-12-20T04:32:45;0.00;;;0.00;;
10701;SDS011;5402;50.004;8.246;2023-12-20T04:35:11;0.00;;;0.00;;
10701;SDS011;5402;50.004;8.246;2023-12-20T04:37:38;0.00;;;0.00;;
10701;SDS011;5402;50.004;8.246;2023-12-20T04:40:07;0.00;;;0.00;;
10701;SDS011;5402;50.004;8.246;2023-12-20T04:42:34;0.00;;;0.00;;
10701;SDS011;5402;50.004;8.246;2023-12-20T04:45:00;0.00;;;0.00;;
10701;SDS011;5402;50.004;8.246;2023-12-20T04:47:28;0.00;;;0.00;;
10701;SDS011;5402;50.004;8.246;2023-12-20T04:49:54;0.00;;;0.00;;
10701;SDS011;5402;50.004;8.246;2023-12-20T04:52:21;0.00;;;0.00;;
10701;SDS011;5402;50.004;8.246;2023-12-20T04:54:48;0.00;;;0.00;;
10701;SDS011;5402;50.004;8.246;2023-12-20T04:57:16;0.00;;;0.00;;
10701;SDS011;5402;50.004;8.246;2023-12-20T04:59:43;0.00;;;0.00;;
10701;SDS011;5402;50.004;8.246;2023-12-20T05:02:09;0.00;;;0.00;;
10701;SDS011;5402;50.004;8.246;2023-12-20T05:04:36;0.00;;;0.00;;
10701;SDS011;5402;50.004;8.246;2023-12-20T05:07:03;0.00;;;0.00;;
10701;SDS011;5402;50.004;8.246;2023-12-20T05:09:30;0.00;;;0.00;;
10701;SDS011;5402;50.004;8.246;2023-12-20T05:11:57;0.00;;;0.00;;
10701;SDS011;5402;50.004;8.246;2023-12-20T05:14:25;0.00;;;0.00;;
10701;SDS011;5402;50.004;8.246;2023-12-20T05:16:52;0.00;;;0.00;;
10701;SDS011;5402;50.004;8.246;2023-12-20T05:19:20;0.00;;;0.00;;
10701;SDS011;5402;50.004;8.246;2023-12-20T05:21:46;0.00;;;0.00;;
10701;SDS011;5402;50.004;8.246;2023-12-20T05:24:13;0.00;;;0.00;;
10701;SDS011;5402;50.004;8.246;2023-12-20T05:26:40;0.00;;;0.00;;
10701;SDS011;5402;50.004;8.246;2023-12-20T05:29:06;0.00;;;0.00;;
10701;SDS011;5402;50.004;8.246;2023-12-20T05:31:35;0.00;;;0.00;;
10701;SDS011;5402;50.004;8.246;2023-12-20T05:34:01;0.00;;;0.00;;
10701;SDS011;5402;50.004;8.246;2023-12-20T05:36:28;0.00;;;0.00;;
10701;SDS011;5402;50.004;8.246;2023-12-20T05:38:55;0.00;;;0.00;;
10701;SDS011;5402;50.004;8.246;2023-12-20T05:41:21;0.00;;;0.00;;
10701;SDS011;5402;50.004;8.246;2023-12-20T05:43:48;0.00;;;0.00;;
10701;SDS011;5402;50.004;8.246;2023-12-20T05:46:15;0.00;;;0.00;;
10701;SDS011;5402;50.004;8.246;2023-12-20T05:48:43;0.00;;;0.00;;
10701;SDS011;5402;50.004;8.246;2023-12-20T05:51:11;0.00;;;0.00;;
10701;SDS011;5402;50.004;8.246;2023-12-20T05:53:38;0.00;;;0.00;;
10701;SDS011;5402;50.004;8.246;2023-12-20T05:56:04;0.00;;;0.00;;
10701;SDS011;5402;50.004;8.246;2023-12-20T05:58:31;0.00;;;0.00;;
10701;SDS011;5402;50.004;8.246;2023-12-20T06:00:58;0.00;;;0.00;;
10701;SDS011;5402;50.004;8.246;2023-12-20T06:03:25;0.00;;;0.00;;
10701;SDS011;5402;50.004;8.246;2023-12-20T06:05:53;0.00;;;0.00;;
10701;SDS011;5402;50.004;8.246;2023-12-20T06:08:19;0.00;;;0.00;;
10701;SDS011;5402;50.004;8.246;2023-12-20T06:10:46;0.00;;;0.00;;
10701;SDS011;5402;50.004;8.246;2023-12-20T06:13:13;0.00;;;0.00;;
10701;SDS011;5402;50.004;8.246;2023-12-20T06:15:39;0.00;;;0.00;;
10701;SDS011;5402;50.004;8.246;2023-12-20T06:18:06;0.00;;;0.00;;
10701;SDS011;5402;50.004;8.246;2023-12-20T06:20:33;0.00;;;0.00;;
10701;SDS011;5402;50.004;8.246;2023-12-20T06:23:01;0.00;;;0.00;;
10701;SDS011;5402;50.004;8.246;2023-12-20T06:25:28;0.00;;;0.00;;
10701;SDS011;5402;50.004;8.246;2023-12-20T06:27:54;0.00;;;0.00;;
10701;SDS011;5402;50.004;8.246;2023-12-20T06:30:21;0.00;;;0.00;;
10701;SDS011;5402;50.004;8.246;2023-12-20T06:32:49;0.00;;;0.00;;
10701;SDS011;5402;50.004;8.246;2023-12-20T06:35:16;0.00;;;0.00;;
10701;SDS011;5402;50.004;8.246;2023-12-20T06:37:43;0.00;;;0.00;;
10701;SDS011;5402;50.004;8.246;2023-12-20T06:40:11;0.00;;;0.00;;
10701;SDS011;5402;50.004;8.246;2023-12-20T06:42:38;0.00;;;0.00;;
10701;SDS011;5402;50.004;8.246;2023-12-20T06:45:05;0.00;;;0.00;;
10701;SDS011;5402;50.004;8.246;2023-12-20T06:47:32;0.00;;;0.00;;
10701;SDS011;5402;50.004;8.246;2023-12-20T06:49:59;0.00;;;0.00;;
10701;SDS011;5402;50.004;8.246;2023-12-20T06:52:25;0.00;;;0.00;;
10701;SDS011;5402;50.004;8.246;2023-12-20T06:54:52;0.10;;;0.10;;
10701;SDS011;5402;50.004;8.246;2023-12-20T06:57:20;0.00;;;0.00;;
10701;SDS011;5402;50.004;8.246;2023-12-20T06:59:47;0.00;;;0.00;;
10701;SDS011;5402;50.004;8.246;2023-12-20T07:02:13;0.00;;;0.00;;
10701;SDS011;5402;50.004;8.246;2023-12-20T07:04:40;0.00;;;0.00;;
10701;SDS011;5402;50.004;8.246;2023-12-20T07:07:07;0.00;;;0.00;;
10701;SDS011;5402;50.004;8.246;2023-12-20T07:09:34;0.00;;;0.00;;
10701;SDS011;5402;50.004;8.246;2023-12-20T07:12:01;0.00;;;0.00;;
10701;SDS011;5402;50.004;8.246;2023-12-20T07:14:29;0.47;;;0.47;;
10701;SDS011;5402;50.004;8.246;2023-12-20T07:16:56;0.00;;;0.00;;
10701;SDS011;5402;50.004;8.246;2023-12-20T07:19:23;0.37;;;0.37;;
10701;SDS011;5402;50.004;8.246;2023-12-20T07:21:49;0.67;;;0.67;;
10701;SDS011;5402;50.004;8.246;2023-12-20T07:24:16;0.20;;;0.20;;
10701;SDS011;5402;50.004;8.246;2023-12-20T07:26:43;0.00;;;0.00;;
10701;SDS011;5402;50.004;8.246;2023-12-20T07:29:09;0.00;;;0.00;;
10701;SDS011;5402;50.004;8.246;2023-12-20T07:31:37;0.00;;;0.00;;
10701;SDS011;5402;50.004;8.246;2023-12-20T07:34:04;0.00;;;0.00;;
10701;SDS011;5402;50.004;8.246;2023-12-20T07:36:31;0.00;;;0.00;;
10701;SDS011;5402;50.004;8.246;2023-12-20T07:38:58;0.50;;;0.50;;
10701;SDS011;5402;50.004;8.246;2023-12-20T07:41:24;0.20;;;0.20;;
10701;SDS011;5402;50.004;8.246;2023-12-20T07:43:51;0.20;;;0.20;;
10701;SDS011;5402;50.004;8.246;2023-12-20T07:46:18;0.20;;;0.20;;
10701;SDS011;5402;50.004;8.246;2023-12-20T07:48:50;0.00;;;0.00;;
10701;SDS011;5402;50.004;8.246;2023-12-20T07:51:16;0.10;;;0.10;;
10701;SDS011;5402;50.004;8.246;2023-12-20T07:53:43;0.20;;;0.20;;
10701;SDS011;5402;50.004;8.246;2023-12-20T07:56:13;0.13;;;0.13;;
10701;SDS011;5402;50.004;8.246;2023-12-20T07:58:41;6.43;;;0.50;;
10701;SDS011;5402;50.004;8.246;2023-12-20T08:01:08;1.17;;;0.63;;
10701;SDS011;5402;50.004;8.246;2023-12-20T08:03:34;0.53;;;0.30;;
10701;SDS011;5402;50.004;8.246;2023-12-20T08:06:02;2.10;;;0.50;;
10701;SDS011;5402;50.004;8.246;2023-12-20T08:08:30;0.70;;;0.50;;
10701;SDS011;5402;50.004;8.246;2023-12-20T08:10:56;0.80;;;0.70;;
10701;SDS011;5402;50.004;8.246;2023-12-20T08:13:25;1.10;;;1.00;;
10701;SDS011;5402;50.004;8.246;2023-12-20T08:15:52;1.87;;;1.40;;
10701;SDS011;5402;50.004;8.246;2023-12-20T08:18:19;2.53;;;1.07;;
10701;SDS011;5402;50.004;8.246;2023-12-20T08:20:46;4.00;;;1.50;;
10701;SDS011;5402;50.004;8.246;2023-12-20T08:23:14;6.83;;;1.80;;
10701;SDS011;5402;50.004;8.246;2023-12-20T08:25:41;1.57;;;1.33;;
10701;SDS011;5402;50.004;8.246;2023-12-20T08:28:08;3.53;;;1.87;;
10701;SDS011;5402;50.004;8.246;2023-12-20T08:30:35;6.33;;;2.77;;
10701;SDS011;5402;50.004;8.246;2023-12-20T08:33:01;2.93;;;1.43;;
10701;SDS011;5402;50.004;8.246;2023-12-20T08:35:28;6.47;;;1.47;;
10701;SDS011;5402;50.004;8.246;2023-12-20T08:37:55;19.07;;;11.33;;
10701;SDS011;5402;50.004;8.246;2023-12-20T08:40:23;1.90;;;1.67;;
10701;SDS011;5402;50.004;8.246;2023-12-20T08:42:50;3.43;;;1.83;;
10701;SDS011;5402;50.004;8.246;2023-12-20T08:45:16;2.70;;;1.50;;
10701;SDS011;5402;50.004;8.246;2023-12-20T08:47:43;7.53;;;1.93;;
10701;SDS011;5402;50.004;8.246;2023-12-20T08:50:10;4.40;;;1.57;;
10701;SDS011;5402;50.004;8.246;2023-12-20T08:52:37;4.07;;;1.70;;
10701;SDS011;5402;50.004;8.246;2023-12-20T08:55:04;5.47;;;1.53;;
10701;SDS011;5402;50.004;8.246;2023-12-20T08:57:33;5.13;;;1.80;;
10701;SDS011;5402;50.004;8.246;2023-12-20T09:00:00;10.10;;;5.97;;
10701;SDS011;5402;50.004;8.246;2023-12-20T09:02:26;11.73;;;5.53;;
10701;SDS011;5402;50.004;8.246;2023-12-20T09:04:54;5.37;;;1.93;;
10701;SDS011;5402;50.004;8.246;2023-12-20T09:07:21;8.10;;;2.73;;
10701;SDS011;5402;50.004;8.246;2023-12-20T09:09:49;5.87;;;1.80;;
10701;SDS011;5402;50.004;8.246;2023-12-20T09:12:17;2.60;;;1.70;;
10701;SDS011;5402;50.004;8.246;2023-12-20T09:14:46;4.37;;;2.10;;
10701;SDS011;5402;50.004;8.246;2023-12-20T09:17:13;4.80;;;2.37;;
10701;SDS011;5402;50.004;8.246;2023-12-20T09:19:41;7.53;;;2.30;;
10701;SDS011;5402;50.004;8.246;2023-12-20T09:22:08;4.47;;;1.93;;
10701;SDS011;5402;50.004;8.246;2023-12-20T09:24:36;6.33;;;2.30;;
10701;SDS011;5402;50.004;8.246;2023-12-20T09:27:04;4.93;;;1.83;;
10701;SDS011;5402;50.004;8.246;2023-12-20T09:29:31;5.27;;;2.00;;
10701;SDS011;5402;50.004;8.246;2023-12-20T09:31:59;10.20;;;2.50;;
10701;SDS011;5402;50.004;8.246;2023-12-20T09:34:26;5.27;;;1.90;;
10701;SDS011;5402;50.004;8.246;2023-12-20T09:36:52;6.20;;;1.97;;
10701;SDS011;5402;50.004;8.246;2023-12-20T09:39:19;4.50;;;1.80;;
10701;SDS011;5402;50.004;8.246;2023-12-20T09:41:49;7.87;;;2.23;;
10701;SDS011;5402;50.004;8.246;2023-12-20T09:44:25;7.53;;;2.10;;
10701;SDS011;5402;50.004;8.246;2023-12-20T09:46:52;4.70;;;1.87;;
10701;SDS011;5402;50.004;8.246;2023-12-20T09:49:21;2.90;;;1.93;;
10701;SDS011;5402;50.004;8.246;2023-12-20T09:51:49;2.60;;;2.03;;
10701;SDS011;5402;50.004;8.246;2023-12-20T09:54:17;5.53;;;2.13;;
10701;SDS011;5402;50.004;8.246;2023-12-20T09:56:44;6.13;;;2.40;;
10701;SDS011;5402;50.004;8.246;2023-12-20T09:59:11;6.43;;;2.20;;
10701;SDS011;5402;50.004;8.246;2023-12-20T10:01:39;3.27;;;1.70;;
10701;SDS011;5402;50.004;8.246;2023-12-20T10:04:06;5.90;;;1.93;;
10701;SDS011;5402;50.004;8.246;2023-12-20T10:06:38;4.03;;;1.77;;
10701;SDS011;5402;50.004;8.246;2023-12-20T10:09:05;4.47;;;1.77;;
10701;SDS011;5402;50.004;8.246;2023-12-20T10:11:32;8.23;;;2.10;;
10701;SDS011;5402;50.004;8.246;2023-12-20T10:14:02;6.17;;;2.20;;
10701;SDS011;5402;50.004;8.246;2023-12-20T10:16:30;8.43;;;1.87;;
10701;SDS011;5402;50.004;8.246;2023-12-20T10:18:57;6.87;;;2.30;;
10701;SDS011;5402;50.004;8.246;2023-12-20T10:21:25;5.23;;;1.77;;
10701;SDS011;5402;50.004;8.246;2023-12-20T10:23:54;6.17;;;1.90;;
10701;SDS011;5402;50.004;8.246;2023-12-20T10:26:21;7.23;;;1.97;;
10701;SDS011;5402;50.004;8.246;2023-12-20T10:28:50;5.57;;;2.00;;
10701;SDS011;5402;50.004;8.246;2023-12-20T10:31:27;5.93;;;2.00;;
10701;SDS011;5402;50.004;8.246;2023-12-20T10:33:55;3.87;;;1.70;;
10701;SDS011;5402;50.004;8.246;2023-12-20T10:36:24;6.30;;;2.33;;
10701;SDS011;5402;50.004;8.246;2023-12-20T10:38:55;5.83;;;1.87;;
10701;SDS011;5402;50.004;8.246;2023-12-20T10:41:26;5.33;;;2.10;;
10701;SDS011;5402;50.004;8.246;2023-12-20T10:43:54;3.37;;;2.00;;
10701;SDS011;5402;50.004;8.246;2023-12-20T10:46:25;5.60;;;2.10;;
10701;SDS011;5402;50.004;8.246;2023-12-20T10:48:53;6.73;;;2.20;;
10701;SDS011;5402;50.004;8.246;2023-12-20T10:51:21;6.00;;;2.17;;
10701;SDS011;5402;50.004;8.246;2023-12-20T10:53:49;6.53;;;2.47;;
10701;SDS011;5402;50.004;8.246;2023-12-20T10:56:18;5.27;;;2.30;;
10701;SDS011;5402;50.004;8.246;2023-12-20T10:58:46;5.53;;;1.83;;
10701;SDS011;5402;50.004;8.246;2023-12-20T11:01:13;9.23;;;2.57;;
10701;SDS011;5402;50.004;8.246;2023-12-20T11:03:43;5.50;;;1.90;;
10701;SDS011;5402;50.004;8.246;2023-12-20T11:06:19;4.40;;;1.93;;
10701;SDS011;5402;50.004;8.246;2023-12-20T11:09:01;5.80;;;2.10;;
10701;SDS011;5402;50.004;8.246;2023-12-20T11:11:42;4.47;;;1.83;;
10701;SDS011;5402;50.004;8.246;2023-12-20T11:14:22;3.97;;;1.53;;
10701;SDS011;5402;50.004;8.246;2023-12-20T11:17:04;4.67;;;2.10;;
10701;SDS011;5402;50.004;8.246;2023-12-20T11:19:32;5.07;;;2.00;;
10701;SDS011;5402;50.004;8.246;2023-12-20T11:21:58;6.80;;;2.37;;
10701;SDS011;5402;50.004;8.246;2023-12-20T11:24:25;6.13;;;1.90;;
10701;SDS011;5402;50.004;8.246;2023-12-20T11:26:56;4.67;;;1.80;;
10701;SDS011;5402;50.004;8.246;2023-12-20T11:29:29;5.63;;;2.10;;
10701;SDS011;5402;50.004;8.246;2023-12-20T11:31:56;3.07;;;1.90;;
10701;SDS011;5402;50.004;8.246;2023-12-20T11:34:26;5.73;;;2.27;;
10701;SDS011;5402;50.004;8.246;2023-12-20T11:36:58;5.10;;;2.00;;
10701;SDS011;5402;50.004;8.246;2023-12-20T11:39:26;2.80;;;1.90;;
10701;SDS011;5402;50.004;8.246;2023-12-20T11:41:55;3.23;;;1.83;;
10701;SDS011;5402;50.004;8.246;2023-12-20T11:44:25;4.50;;;1.83;;
10701;SDS011;5402;50.004;8.246;2023-12-20T11:46:52;9.50;;;2.20;;
10701;SDS011;5402;50.004;8.246;2023-12-20T11:49:22;6.57;;;1.97;;
10701;SDS011;5402;50.004;8.246;2023-12-20T11:51:49;7.73;;;2.57;;
10701;SDS011;5402;50.004;8.246;2023-12-20T11:54:16;4.43;;;2.00;;
10701;SDS011;5402;50.004;8.246;2023-12-20T11:56:43;5.33;;;2.00;;
10701;SDS011;5402;50.004;8.246;2023-12-20T11:59:11;16.47;;;10.93;;
10701;SDS011;5402;50.004;8.246;2023-12-20T12:01:38;8.53;;;5.90;;
10701;SDS011;5402;50.004;8.246;2023-12-20T12:04:05;5.37;;;2.40;;
10701;SDS011;5402;50.004;8.246;2023-12-20T12:06:32;4.97;;;2.10;;
10701;SDS011;5402;50.004;8.246;2023-12-20T12:08:59;5.33;;;2.40;;
10701;SDS011;5402;50.004;8.246;2023-12-20T12:11:26;6.10;;;2.33;;
10701;SDS011;5402;50.004;8.246;2023-12-20T12:13:53;4.53;;;1.83;;
10701;SDS011;5402;50.004;8.246;2023-12-20T12:16:21;3.50;;;1.77;;
10701;SDS011;5402;50.004;8.246;2023-12-20T12:18:54;4.37;;;2.03;;
10701;SDS011;5402;50.004;8.246;2023-12-20T12:21:22;3.67;;;2.77;;
10701;SDS011;5402;50.004;8.246;2023-12-20T12:23:48;4.90;;;1.80;;
10701;SDS011;5402;50.004;8.246;2023-12-20T12:26:15;3.80;;;1.70;;
10701;SDS011;5402;50.004;8.246;2023-12-20T12:28:42;5.03;;;1.67;;
10701;SDS011;5402;50.004;8.246;2023-12-20T12:31:12;4.73;;;2.10;;
10701;SDS011;5402;50.004;8.246;2023-12-20T12:33:41;3.50;;;1.80;;
10701;SDS011;5402;50.004;8.246;2023-12-20T12:36:09;3.67;;;1.77;;
10701;SDS011;5402;50.004;8.246;2023-12-20T12:38:37;7.57;;;2.20;;
10701;SDS011;5402;50.004;8.246;2023-12-20T12:41:04;3.83;;;2.10;;
10701;SDS011;5402;50.004;8.246;2023-12-20T12:43:31;4.57;;;2.07;;
10701;SDS011;5402;50.004;8.246;2023-12-20T12:45:58;5.50;;;2.10;;
10701;SDS011;5402;50.004;8.246;2023-12-20T12:48:25;3.67;;;2.00;;
10701;SDS011;5402;50.004;8.246;2023-12-20T12:50:54;5.43;;;1.93;;
10701;SDS011;5402;50.004;8.246;2023-12-20T12:53:24;5.83;;;1.90;;
10701;SDS011;5402;50.004;8.246;2023-12-20T12:55:51;2.93;;;1.70;;
10701;SDS011;5402;50.004;8.246;2023-12-20T12:58:18;2.50;;;1.53;;
10701;SDS011;5402;50.004;8.246;2023-12-20T13:00:45;4.67;;;1.73;;
10701;SDS011;5402;50.004;8.246;2023-12-20T13:03:12;2.93;;;1.87;;
10701;SDS011;5402;50.004;8.246;2023-12-20T13:05:38;4.83;;;2.07;;
10701;SDS011;5402;50.004;8.246;2023-12-20T13:08:07;3.80;;;1.87;;
10701;SDS011;5402;50.004;8.246;2023-12-20T13:10:34;7.17;;;1.93;;
10701;SDS011;5402;50.004;8.246;2023-12-20T13:13:02;4.67;;;1.80;;
10701;SDS011;5402;50.004;8.246;2023-12-20T13:15:29;4.03;;;1.97;;
10701;SDS011;5402;50.004;8.246;2023-12-20T13:17:56;2.77;;;1.90;;
10701;SDS011;5402;50.004;8.246;2023-12-20T13:20:23;5.00;;;1.90;;
10701;SDS011;5402;50.004;8.246;2023-12-20T13:22:50;2.10;;;1.40;;
10701;SDS011;5402;50.004;8.246;2023-12-20T13:25:18;5.30;;;1.67;;
10701;SDS011;5402;50.004;8.246;2023-12-20T13:27:44;4.53;;;1.87;;
10701;SDS011;5402;50.004;8.246;2023-12-20T13:30:12;8.23;;;2.73;;
10701;SDS011;5402;50.004;8.246;2023-12-20T13:32:39;10.00;;;5.77;;
10701;SDS011;5402;50.004;8.246;2023-12-20T13:35:06;9.93;;;6.17;;
10701;SDS011;5402;50.004;8.246;2023-12-20T13:37:34;3.43;;;1.37;;
10701;SDS011;5402;50.004;8.246;2023-12-20T13:40:01;5.30;;;1.63;;
10701;SDS011;5402;50.004;8.246;2023-12-20T13:42:30;5.50;;;1.47;;
10701;SDS011;5402;50.004;8.246;2023-12-20T13:44:57;2.27;;;1.40;;
10701;SDS011;5402;50.004;8.246;2023-12-20T13:47:24;3.17;;;1.30;;
10701;SDS011;5402;50.004;8.246;2023-12-20T13:49:50;1.73;;;1.50;;
10701;SDS011;5402;50.004;8.246;2023-12-20T13:52:17;4.53;;;1.70;;
10701;SDS011;5402;50.004;8.246;2023-12-20T13:54:44;3.87;;;1.50;;
10701;SDS011;5402;50.004;8.246;2023-12-20T13:57:11;2.00;;;1.40;;
10701;SDS011;5402;50.004;8.246;2023-12-20T13:59:39;1.97;;;1.40;;
10701;SDS011;5402;50.004;8.246;2023-12-20T14:02:07;2.90;;;1.40;;
10701;SDS011;5402;50.004;8.246;2023-12-20T14:04:33;7.07;;;1.53;;
10701;SDS011;5402;50.004;8.246;2023-12-20T14:07:00;1.83;;;1.20;;
10701;SDS011;5402;50.004;8.246;2023-12-20T14:09:27;2.27;;;1.40;;
10701;SDS011;5402;50.004;8.246;2023-12-20T14:11:54;3.83;;;1.40;;
10701;SDS011;5402;50.004;8.246;2023-12-20T14:14:22;4.50;;;1.60;;
10701;SDS011;5402;50.004;8.246;2023-12-20T14:16:50;2.70;;;1.30;;
10701;SDS011;5402;50.004;8.246;2023-12-20T14:19:17;3.33;;;1.13;;
10701;SDS011;5402;50.004;8.246;2023-12-20T14:21:44;5.50;;;1.57;;
10701;SDS011;5402;50.004;8.246;2023-12-20T14:24:11;3.20;;;1.07;;
10701;SDS011;5402;50.004;8.246;2023-12-20T14:26:39;4.93;;;1.40;;
10701;SDS011;5402;50.004;8.246;2023-12-20T14:29:06;3.47;;;1.23;;
10701;SDS011;5402;50.004;8.246;2023-12-20T14:31:34;4.23;;;1.43;;
10701;SDS011;5402;50.004;8.246;2023-12-20T14:34:03;2.40;;;1.30;;
10701;SDS011;5402;50.004;8.246;2023-12-20T14:36:30;3.77;;;1.40;;
10701;SDS011;5402;50.004;8.246;2023-12-20T14:38:57;4.77;;;2.00;;
10701;SDS011;5402;50.004;8.246;2023-12-20T14:41:24;3.57;;;1.30;;
10701;SDS011;5402;50.004;8.246;2023-12-20T14:43:51;1.93;;;1.30;;
10701;SDS011;5402;50.004;8.246;2023-12-20T14:46:18;3.33;;;1.77;;
10701;SDS011;5402;50.004;8.246;2023-12-20T14:48:45;4.17;;;1.67;;
10701;SDS011;5402;50.004;8.246;2023-12-20T14:51:14;6.57;;;4.43;;
10701;SDS011;5402;50.004;8.246;2023-12-20T14:53:41;3.13;;;1.60;;
10701;SDS011;5402;50.004;8.246;2023-12-20T14:56:08;5.17;;;1.30;;
10701;SDS011;5402;50.004;8.246;2023-12-20T14:58:34;2.17;;;1.30;;
10701;SDS011;5402;50.004;8.246;2023-12-20T15:01:02;3.10;;;1.30;;